createdAt,value
2023-05-19T00:00:01.429Z,79.02
2023-05-19T00:02:33.682Z,78.33
2023-05-19T00:05:03.555Z,77.28
2023-05-19T00:07:33.686Z,79.88
2023-05-19T00:10:00.586Z,80.15
2023-05-19T00:12:29.416Z,78.57
2023-05-19T00:15:01.632Z,79.04
2023-05-19T00:17:31.172Z,79.09
2023-05-19T00:19:59.896Z,79.26
2023-05-19T00:22:28.652Z,79.88
2023-05-19T00:24:55.427Z,79.81
2023-05-19T00:27:22.018Z,80.28
2023-05-19T00:29:50.819Z,78.84
2023-05-19T00:32:17.478Z,78.91
2023-05-19T00:34:44.130Z,79.10
2023-05-19T00:37:12.892Z,79.90
2023-05-19T00:39:41.912Z,80.99
2023-05-19T00:42:12.175Z,80.66
2023-05-19T00:44:41.709Z,82.37
2023-05-19T00:47:08.748Z,82.36
2023-05-19T00:49:36.143Z,81.85
2023-05-19T00:52:06.461Z,80.56
2023-05-19T00:54:36.547Z,83.54
2023-05-19T00:57:05.837Z,82.47
2023-05-19T00:59:32.437Z,83.92
2023-05-19T01:02:03.017Z,82.89
2023-05-19T01:04:34.915Z,84.30
2023-05-19T01:07:07.581Z,82.73
2023-05-19T01:09:34.139Z,83.13
2023-05-19T01:12:01.459Z,82.82
2023-05-19T01:14:29.010Z,84.46
2023-05-19T01:17:08.185Z,82.46
2023-05-19T01:19:46.927Z,81.48
2023-05-19T01:22:46.623Z,82.20
2023-05-19T01:25:27.526Z,82.57
2023-05-19T01:28:22.749Z,82.36
2023-05-19T01:30:55.582Z,83.05
2023-05-19T01:33:24.403Z,84.12
2023-05-19T01:35:53.922Z,83.32
2023-05-19T01:38:27.238Z,82.62
2023-05-19T01:40:54.903Z,83.25
2023-05-19T01:43:26.711Z,83.09
2023-05-19T01:45:58.894Z,83.03
2023-05-19T01:48:29.962Z,83.06
2023-05-19T01:50:57.441Z,82.88
2023-05-19T01:53:27.058Z,82.44
2023-05-19T01:55:55.835Z,83.20
2023-05-19T01:58:47.501Z,82.96
2023-05-19T02:01:26.280Z,84.29
2023-05-19T02:04:32.498Z,83.09
2023-05-19T02:07:05.645Z,82.97
2023-05-19T02:09:41.137Z,83.75
2023-05-19T02:12:26.603Z,83.74
2023-05-19T02:14:55.070Z,82.12
2023-05-19T02:17:25.684Z,83.00
2023-05-19T02:19:54.483Z,84.33
2023-05-19T02:22:21.134Z,83.74
2023-05-19T02:24:51.714Z,82.75
2023-05-19T02:27:18.793Z,83.95
2023-05-19T02:29:45.402Z,85.33
2023-05-19T02:32:17.800Z,84.09
2023-05-19T02:34:48.389Z,84.90
2023-05-19T02:37:18.183Z,84.67
2023-05-19T02:39:50.423Z,83.86
2023-05-19T02:42:20.386Z,84.82
2023-05-19T02:44:47.074Z,85.58
2023-05-19T02:47:13.810Z,84.80
2023-05-19T02:49:44.480Z,85.67
2023-05-19T02:52:13.289Z,85.40
2023-05-19T02:54:39.872Z,85.20
2023-05-19T02:57:08.693Z,86.27
2023-05-19T02:59:37.450Z,84.61
2023-05-19T03:02:04.423Z,85.74
2023-05-19T03:04:31.076Z,85.44
2023-05-19T03:06:57.845Z,85.16
2023-05-19T03:09:24.625Z,84.65
2023-05-19T03:11:53.681Z,85.01
2023-05-19T03:14:23.951Z,84.88
2023-05-19T03:16:51.032Z,85.39
2023-05-19T03:19:20.313Z,84.77
2023-05-19T03:21:47.600Z,84.99
2023-05-19T03:24:14.230Z,85.88
2023-05-19T03:26:43.235Z,85.20
2023-05-19T03:29:10.029Z,85.78
2023-05-19T03:31:36.742Z,85.56
2023-05-19T03:34:05.633Z,85.04
2023-05-19T03:36:32.357Z,85.86
2023-05-19T03:38:59.312Z,85.12
2023-05-19T03:41:26.023Z,87.64
2023-05-19T03:43:55.104Z,86.09
2023-05-19T03:46:21.814Z,86.00
2023-05-19T03:48:50.808Z,86.70
2023-05-19T03:51:17.607Z,87.49
2023-05-19T03:53:48.758Z,87.03
2023-05-19T03:56:18.139Z,86.06
2023-05-19T03:58:49.721Z,87.58
2023-05-19T04:01:16.341Z,87.80
2023-05-19T04:03:43.027Z,87.88
2023-05-19T04:06:09.664Z,88.88
2023-05-19T04:08:39.032Z,88.29
2023-05-19T04:11:05.617Z,89.60
2023-05-19T04:13:37.852Z,89.26
2023-05-19T04:16:04.809Z,89.06
2023-05-19T04:18:33.907Z,89.13
2023-05-19T04:21:00.560Z,89.25
2023-05-19T04:23:29.722Z,90.13
2023-05-19T04:25:59.081Z,90.50
2023-05-19T04:28:30.569Z,89.54
2023-05-19T04:30:58.856Z,92.37
2023-05-19T04:33:29.951Z,89.84
2023-05-19T04:35:57.003Z,89.73
2023-05-19T04:38:30.001Z,90.37
2023-05-19T04:40:56.700Z,89.74
2023-05-19T04:43:23.334Z,89.81
2023-05-19T04:45:51.463Z,91.08
2023-05-19T04:48:18.140Z,87.93
2023-05-19T04:50:44.743Z,87.67
2023-05-19T04:53:11.477Z,87.20
2023-05-19T04:55:40.685Z,88.06
2023-05-19T04:58:12.543Z,87.27
2023-05-19T05:00:39.073Z,87.48
2023-05-19T05:03:07.240Z,87.52
2023-05-19T05:05:34.818Z,86.95
2023-05-19T05:08:01.608Z,86.64
2023-05-19T05:10:30.924Z,84.97
2023-05-19T05:13:00.894Z,85.63
2023-05-19T05:15:28.912Z,85.91
2023-05-19T05:17:56.274Z,85.88
2023-05-19T05:20:28.253Z,84.16
2023-05-19T05:22:55.114Z,83.88
2023-05-19T05:25:22.032Z,82.95
2023-05-19T05:27:51.317Z,83.23
2023-05-19T05:30:20.199Z,82.80
2023-05-19T05:32:49.399Z,82.94
2023-05-19T05:35:16.411Z,85.64
2023-05-19T05:37:42.956Z,85.63
2023-05-19T05:40:15.038Z,84.32
2023-05-19T05:42:46.502Z,83.30
2023-05-19T05:45:15.745Z,83.76
2023-05-19T05:47:47.837Z,84.36
2023-05-19T05:50:17.849Z,83.06
2023-05-19T05:52:48.318Z,84.17
2023-05-19T05:55:17.637Z,82.61
2023-05-19T05:57:44.294Z,83.32
2023-05-19T06:00:17.345Z,84.28
2023-05-19T06:02:51.312Z,85.61
2023-05-19T06:05:18.180Z,84.72
2023-05-19T06:07:47.165Z,85.32
2023-05-19T06:10:18.458Z,83.90
2023-05-19T06:12:48.139Z,83.46
2023-05-19T06:15:14.810Z,83.42
2023-05-19T06:17:41.404Z,85.24
2023-05-19T06:20:13.546Z,84.52
2023-05-19T06:22:40.202Z,83.15
2023-05-19T06:25:09.052Z,81.90
2023-05-19T06:27:38.168Z,82.92
2023-05-19T06:30:08.782Z,83.43
2023-05-19T06:32:35.514Z,83.13
2023-05-19T06:35:02.138Z,81.25
2023-05-19T06:37:31.759Z,81.85
2023-05-19T06:40:00.509Z,79.68
2023-05-19T06:42:29.232Z,81.11
2023-05-19T06:44:55.842Z,81.59
2023-05-19T06:47:22.457Z,83.70
2023-05-19T06:49:55.353Z,82.06
2023-05-19T06:52:22.716Z,84.93
2023-05-19T06:54:51.954Z,83.22
2023-05-19T06:57:18.560Z,82.76
2023-05-19T06:59:47.561Z,83.37
2023-05-19T07:02:14.315Z,82.99
2023-05-19T07:04:41.108Z,81.09
2023-05-19T07:07:10.410Z,80.35
2023-05-19T07:09:39.283Z,82.82
2023-05-19T07:12:06.426Z,82.45
2023-05-19T07:14:36.507Z,81.05
2023-05-19T07:17:05.653Z,79.66
2023-05-19T07:19:35.223Z,82.47
2023-05-19T07:22:01.889Z,81.62
2023-05-19T07:24:31.627Z,80.46
2023-05-19T07:27:00.508Z,80.62
2023-05-19T07:29:27.134Z,82.30
2023-05-19T07:31:57.809Z,83.18
2023-05-19T07:34:24.978Z,80.71
2023-05-19T07:36:52.196Z,81.73
2023-05-19T07:39:19.376Z,81.47
2023-05-19T07:41:52.623Z,83.21
2023-05-19T07:44:19.357Z,81.57
2023-05-19T07:46:46.111Z,85.02
2023-05-19T07:49:12.807Z,83.17
2023-05-19T07:51:39.349Z,82.93
2023-05-19T07:54:06.062Z,82.41
2023-05-19T07:56:32.691Z,84.64
2023-05-19T07:58:59.298Z,85.22
2023-05-19T08:01:26.210Z,85.19
2023-05-19T08:03:55.536Z,83.15
2023-05-19T08:06:22.568Z,85.66
2023-05-19T08:08:49.153Z,86.24
2023-05-19T08:11:15.748Z,83.75
2023-05-19T08:13:42.334Z,84.27
2023-05-19T08:16:08.980Z,83.15
2023-05-19T08:18:37.934Z,82.98
2023-05-19T08:21:09.522Z,77.64
2023-05-19T08:23:38.796Z,77.82
2023-05-19T08:26:07.645Z,76.92
2023-05-19T08:28:36.731Z,77.14
2023-05-19T08:31:03.476Z,78.03
2023-05-19T08:33:32.474Z,78.44
2023-05-19T08:36:03.850Z,78.45
2023-05-19T08:38:33.005Z,78.19
2023-05-19T08:41:02.102Z,75.57
2023-05-19T08:43:31.723Z,75.47
2023-05-19T08:46:00.147Z,76.21
2023-05-19T08:48:29.475Z,72.82
2023-05-19T08:51:11.922Z,71.35
2023-05-19T08:53:45.671Z,72.12
2023-05-19T08:56:18.710Z,70.81
2023-05-19T08:58:49.217Z,71.91
2023-05-19T09:01:18.827Z,69.36
2023-05-19T09:03:47.073Z,73.48
2023-05-19T09:06:13.813Z,72.84
2023-05-19T09:08:41.690Z,69.65
2023-05-19T09:11:09.623Z,68.55
2023-05-19T09:13:36.589Z,71.19
2023-05-19T09:16:06.597Z,71.59
2023-05-19T09:18:41.221Z,72.90
2023-05-19T09:21:10.319Z,71.63
2023-05-19T09:23:36.997Z,71.04
2023-05-19T09:26:08.029Z,69.38
2023-05-19T09:28:37.953Z,68.34
2023-05-19T09:31:04.673Z,69.73
2023-05-19T09:33:33.814Z,72.35
2023-05-19T09:36:03.313Z,71.86
2023-05-19T09:38:32.550Z,73.18
2023-05-19T09:41:00.418Z,74.06
2023-05-19T09:43:33.680Z,72.97
2023-05-19T09:46:04.091Z,73.92
2023-05-19T09:48:35.615Z,73.15
2023-05-19T09:51:08.086Z,70.11
2023-05-19T09:53:35.179Z,68.76
2023-05-19T09:56:03.693Z,67.80
2023-05-19T09:58:37.100Z,66.54
2023-05-19T10:01:04.847Z,66.50
2023-05-19T10:03:34.441Z,64.07
2023-05-19T10:06:04.641Z,65.53
2023-05-19T10:08:32.527Z,63.80
2023-05-19T10:10:59.404Z,66.17
2023-05-19T10:13:27.026Z,67.23
2023-05-19T10:15:58.981Z,67.99
2023-05-19T10:18:29.869Z,63.68
2023-05-19T10:21:00.482Z,66.28
2023-05-19T10:23:30.114Z,64.08
2023-05-19T10:26:00.143Z,64.14
2023-05-19T10:28:38.085Z,65.38
2023-05-19T10:31:07.849Z,65.18
2023-05-19T10:34:15.832Z,65.23
2023-05-19T10:36:49.645Z,66.74
2023-05-19T10:39:28.197Z,65.19
2023-05-19T10:42:29.518Z,65.15
2023-05-19T10:45:22.452Z,64.79
2023-05-19T10:47:51.708Z,66.15
2023-05-19T10:50:20.970Z,66.78
2023-05-19T10:52:55.780Z,65.70
2023-05-19T10:55:49.894Z,65.73
2023-05-19T10:58:56.633Z,65.73
2023-05-19T11:01:31.079Z,63.93
2023-05-19T11:03:57.874Z,65.92
2023-05-19T11:06:28.347Z,65.33
2023-05-19T11:09:02.009Z,69.00
2023-05-19T11:11:44.093Z,67.87
2023-05-19T11:14:16.938Z,66.24
2023-05-19T11:16:50.144Z,67.22
2023-05-19T11:19:30.550Z,66.56
2023-05-19T11:22:08.029Z,67.13
2023-05-19T11:24:40.706Z,64.56
2023-05-19T11:27:37.415Z,66.44
2023-05-19T11:30:07.685Z,64.13
2023-05-19T11:32:36.040Z,61.81
2023-05-19T11:35:05.526Z,63.45
2023-05-19T11:37:33.380Z,61.09
2023-05-19T11:40:07.009Z,61.42
2023-05-19T11:42:37.176Z,62.08
2023-05-19T11:45:06.378Z,60.95
2023-05-19T11:47:46.006Z,61.56
2023-05-19T11:50:21.451Z,61.66
2023-05-19T11:52:48.221Z,62.25
2023-05-19T11:55:23.977Z,61.78
2023-05-19T12:00:31.169Z,62.06
2023-05-19T12:02:58.160Z,59.91
2023-05-19T12:05:29.283Z,60.56
2023-05-19T12:07:56.105Z,61.18
2023-05-19T12:10:33.839Z,61.20
2023-05-19T12:13:02.119Z,62.60
2023-05-19T12:15:32.514Z,62.21
2023-05-19T12:18:05.705Z,60.74
2023-05-19T12:20:37.745Z,63.27
2023-05-19T12:23:07.692Z,64.77
2023-05-19T12:25:38.435Z,63.95
2023-05-19T12:28:05.514Z,65.77
2023-05-19T12:30:35.227Z,61.92
2023-05-19T12:33:07.119Z,62.59
2023-05-19T12:35:34.149Z,62.96
2023-05-19T12:38:07.077Z,63.20
2023-05-19T12:40:37.717Z,63.94
2023-05-19T12:43:05.542Z,62.83
2023-05-19T12:45:39.641Z,65.86
2023-05-19T12:48:11.967Z,64.47
2023-05-19T12:50:40.888Z,62.95
2023-05-19T12:53:14.577Z,61.41
2023-05-19T12:55:45.480Z,62.92
2023-05-19T12:58:15.779Z,64.12
2023-05-19T13:00:43.930Z,63.37
2023-05-19T13:03:22.899Z,64.25
2023-05-19T13:05:51.183Z,64.95
2023-05-19T13:08:23.987Z,67.00
2023-05-19T13:10:53.100Z,64.47
2023-05-19T13:13:24.736Z,65.70
2023-05-19T13:15:53.780Z,67.55
2023-05-19T13:18:20.649Z,67.80
2023-05-19T13:20:49.170Z,65.77
2023-05-19T13:23:16.374Z,67.85
2023-05-19T13:25:43.745Z,64.76
2023-05-19T13:28:12.882Z,66.55
2023-05-19T13:30:43.062Z,63.81
2023-05-19T13:33:09.935Z,60.71
2023-05-19T13:35:41.600Z,60.11
2023-05-19T13:38:10.922Z,60.82
2023-05-19T13:40:38.141Z,62.27
2023-05-19T13:43:05.204Z,62.57
2023-05-19T13:45:32.168Z,64.34
2023-05-19T13:47:58.927Z,64.56
2023-05-19T13:50:25.837Z,65.87
2023-05-19T13:52:52.583Z,64.08
2023-05-19T13:55:22.554Z,62.97
2023-05-19T13:57:49.336Z,65.35
2023-05-19T14:00:17.654Z,65.61
2023-05-19T14:02:44.432Z,65.08
2023-05-19T14:05:11.128Z,67.31
2023-05-19T14:07:40.229Z,67.19
2023-05-19T14:10:09.649Z,68.29
2023-05-19T14:12:51.734Z,68.33
2023-05-19T14:15:26.106Z,68.58
2023-05-19T14:17:55.042Z,67.79
2023-05-19T14:20:21.882Z,68.09
2023-05-19T14:22:48.488Z,68.91
2023-05-19T14:25:17.575Z,68.03
2023-05-19T14:27:44.198Z,67.58
2023-05-19T14:30:11.157Z,68.79
2023-05-19T14:32:37.741Z,65.20
2023-05-19T14:35:06.867Z,66.19
2023-05-19T14:37:33.449Z,67.52
2023-05-19T14:40:02.316Z,66.56
2023-05-19T14:42:33.614Z,67.20
2023-05-19T14:45:00.319Z,67.71
2023-05-19T14:47:29.132Z,68.98
2023-05-19T14:49:58.699Z,70.81
2023-05-19T14:52:26.307Z,69.43
2023-05-19T14:54:56.068Z,69.38
2023-05-19T14:57:22.650Z,69.78
2023-05-19T14:59:49.220Z,69.50
2023-05-19T15:02:18.285Z,69.04
2023-05-19T15:04:44.974Z,70.78
2023-05-19T15:07:13.836Z,71.39
2023-05-19T15:09:45.007Z,71.17
2023-05-19T15:12:16.225Z,72.27
2023-05-19T15:14:45.704Z,71.59
2023-05-19T15:17:12.484Z,73.12
2023-05-19T15:19:42.788Z,72.60
2023-05-19T15:22:09.370Z,73.13
2023-05-19T15:24:38.233Z,73.05
2023-05-19T15:27:05.416Z,72.02
2023-05-19T15:29:34.265Z,72.10
2023-05-19T15:32:01.054Z,72.40
2023-05-19T15:34:29.867Z,72.01
2023-05-19T15:36:56.418Z,71.47
2023-05-19T15:39:23.384Z,71.60
2023-05-19T15:41:53.022Z,72.80
2023-05-19T15:44:19.815Z,72.82
2023-05-19T15:46:46.508Z,72.94
2023-05-19T15:49:15.721Z,71.90
2023-05-19T15:51:42.349Z,73.21
2023-05-19T15:54:08.950Z,73.37
2023-05-19T15:56:37.811Z,72.47
2023-05-19T15:59:06.509Z,72.89
2023-05-19T16:01:35.774Z,73.77
2023-05-19T16:04:03.911Z,73.59
2023-05-19T16:06:33.006Z,72.90
2023-05-19T16:09:02.145Z,73.56
2023-05-19T16:11:30.917Z,72.69
2023-05-19T16:13:59.839Z,73.83
2023-05-19T16:16:26.394Z,74.25
2023-05-19T16:18:55.301Z,74.11
2023-05-19T16:21:22.159Z,74.51
2023-05-19T16:23:50.960Z,73.96
2023-05-19T16:26:17.584Z,72.61
2023-05-19T16:28:44.247Z,74.03
2023-05-19T16:31:15.588Z,73.46
2023-05-19T16:33:44.264Z,73.07
2023-05-19T16:36:13.060Z,74.12
2023-05-19T16:38:41.839Z,74.21
2023-05-19T16:41:13.268Z,73.72
2023-05-19T16:43:42.120Z,73.91
2023-05-19T16:46:13.471Z,73.57
2023-05-19T16:48:42.583Z,74.09
2023-05-19T16:51:09.176Z,73.62
2023-05-19T16:53:35.758Z,73.56
2023-05-19T16:56:02.309Z,73.64
2023-05-19T16:58:30.934Z,73.23
2023-05-19T17:00:59.948Z,72.66
2023-05-19T17:03:26.692Z,72.43
2023-05-19T17:05:55.507Z,73.82
2023-05-19T17:08:22.048Z,72.46
2023-05-19T17:10:50.973Z,72.64
2023-05-19T17:13:17.686Z,73.10
2023-05-19T17:15:44.272Z,72.81
2023-05-19T17:18:12.729Z,72.96
2023-05-19T17:20:39.375Z,74.29
2023-05-19T17:23:06.122Z,73.71
2023-05-19T17:25:35.367Z,74.87
2023-05-19T17:28:04.163Z,74.19
2023-05-19T17:30:31.015Z,74.26
2023-05-19T17:33:00.460Z,73.53
2023-05-19T17:35:28.459Z,74.27
2023-05-19T17:37:55.544Z,74.61
2023-05-19T17:40:22.197Z,75.20
2023-05-19T17:42:48.833Z,74.42
2023-05-19T17:45:17.853Z,74.22
2023-05-19T17:47:47.441Z,73.42
2023-05-19T17:50:13.993Z,73.91
2023-05-19T17:52:43.178Z,72.75
2023-05-19T17:55:12.925Z,73.96
2023-05-19T17:57:44.965Z,73.67
2023-05-19T18:00:14.295Z,73.16
2023-05-19T18:02:43.487Z,73.33
2023-05-19T18:05:10.913Z,74.69
2023-05-19T18:07:44.110Z,74.66
2023-05-19T18:10:16.224Z,75.06
2023-05-19T18:12:42.883Z,74.83
2023-05-19T18:15:11.487Z,75.07
2023-05-19T18:17:40.424Z,74.58
2023-05-19T18:20:12.791Z,75.32
2023-05-19T18:22:41.707Z,73.80
2023-05-19T18:25:11.624Z,74.34
2023-05-19T18:27:42.621Z,74.95
2023-05-19T18:30:09.420Z,73.81
2023-05-19T18:32:38.627Z,75.08
2023-05-19T18:35:05.803Z,74.86
2023-05-19T18:37:35.247Z,75.23
2023-05-19T18:40:06.678Z,74.74
2023-05-19T18:42:33.311Z,74.69
2023-05-19T18:44:59.979Z,75.10
2023-05-19T18:47:26.725Z,76.33
2023-05-19T18:49:58.910Z,76.22
2023-05-19T18:52:31.346Z,77.00
2023-05-19T18:55:00.536Z,76.25
2023-05-19T18:57:27.637Z,76.14
2023-05-19T18:59:54.252Z,76.78
2023-05-19T19:02:23.312Z,77.16
2023-05-19T19:04:50.267Z,77.22
2023-05-19T19:07:17.139Z,76.04
2023-05-19T19:09:43.956Z,76.87
2023-05-19T19:12:11.036Z,74.73
2023-05-19T19:14:38.546Z,75.96
2023-05-19T19:17:07.956Z,76.26
2023-05-19T19:19:34.849Z,76.14
2023-05-19T19:22:06.230Z,77.71
2023-05-19T19:24:32.871Z,77.68
2023-05-19T19:26:59.408Z,76.23
2023-05-19T19:29:28.466Z,77.10
2023-05-19T19:31:57.315Z,76.40
2023-05-19T19:34:26.320Z,77.61
2023-05-19T19:36:55.373Z,77.51
2023-05-19T19:39:24.934Z,77.70
2023-05-19T19:41:51.557Z,78.15
2023-05-19T19:44:18.199Z,75.85
2023-05-19T19:46:47.572Z,77.27
2023-05-19T19:49:16.599Z,77.96
2023-05-19T19:51:45.822Z,77.58
2023-05-19T19:54:12.450Z,78.25
2023-05-19T19:56:41.526Z,78.27
2023-05-19T19:59:08.207Z,78.32
2023-05-19T20:01:34.808Z,77.74
2023-05-19T20:04:01.740Z,79.01
2023-05-19T20:06:28.389Z,80.53
2023-05-19T20:08:55.030Z,79.60
2023-05-19T20:11:23.759Z,78.79
2023-05-19T20:13:52.739Z,78.25
2023-05-19T20:16:22.132Z,78.81
2023-05-19T20:18:51.818Z,79.00
2023-05-19T20:21:18.459Z,78.98
2023-05-19T20:23:47.280Z,79.53
2023-05-19T20:26:18.401Z,79.41
2023-05-19T20:28:47.295Z,79.27
2023-05-19T20:31:14.510Z,79.30
2023-05-19T20:33:45.846Z,80.46
2023-05-19T20:36:15.508Z,79.64
2023-05-19T20:38:42.215Z,80.81
2023-05-19T20:41:08.876Z,80.61
2023-05-19T20:43:40.242Z,80.95
2023-05-19T20:46:06.886Z,80.47
2023-05-19T20:48:36.543Z,82.00
2023-05-19T20:51:03.292Z,80.62
2023-05-19T20:53:29.917Z,81.55
2023-05-19T20:55:56.553Z,81.62
2023-05-19T20:58:26.788Z,81.28
2023-05-19T21:00:57.942Z,82.86
2023-05-19T21:03:28.536Z,81.62
2023-05-19T21:05:57.975Z,81.28
2023-05-19T21:08:26.423Z,81.15
2023-05-19T21:10:55.841Z,81.74
2023-05-19T21:13:22.364Z,81.92
2023-05-19T21:15:48.932Z,82.48
2023-05-19T21:18:17.857Z,82.25
2023-05-19T21:20:47.554Z,82.79
2023-05-19T21:23:14.151Z,82.73
2023-05-19T21:25:45.675Z,82.80
2023-05-19T21:28:12.422Z,83.28
2023-05-19T21:30:39.005Z,83.25
2023-05-19T21:33:07.913Z,81.93
2023-05-19T21:35:34.536Z,82.76
2023-05-19T21:38:11.910Z,83.36
2023-05-19T21:40:38.923Z,83.96
2023-05-19T21:43:11.109Z,82.91
2023-05-19T21:45:39.960Z,84.37
2023-05-19T21:48:06.660Z,82.79
2023-05-19T21:50:39.004Z,84.02
2023-05-19T21:53:05.707Z,84.39
2023-05-19T21:55:37.012Z,84.90
2023-05-19T21:58:03.680Z,84.25
2023-05-19T22:00:33.253Z,84.87
2023-05-19T22:03:00.167Z,84.12
2023-05-19T22:05:28.956Z,84.69
2023-05-19T22:07:55.875Z,85.92
2023-05-19T22:10:26.914Z,84.66
2023-05-19T22:12:56.891Z,84.74
2023-05-19T22:15:23.693Z,84.85
2023-05-19T22:17:54.930Z,84.82
2023-05-19T22:20:21.533Z,85.02
2023-05-19T22:22:48.132Z,85.17
2023-05-19T22:25:17.092Z,84.66
2023-05-19T22:27:43.687Z,85.74
2023-05-19T22:30:12.861Z,87.06
2023-05-19T22:32:42.016Z,86.36
2023-05-19T22:35:08.902Z,87.24
2023-05-19T22:37:35.511Z,85.77
2023-05-19T22:40:02.047Z,86.51
2023-05-19T22:42:28.653Z,86.66
2023-05-19T22:44:55.236Z,86.96
2023-05-19T22:47:21.960Z,87.65
2023-05-19T22:49:50.352Z,87.00
2023-05-19T22:52:17.502Z,88.21
2023-05-19T22:54:44.424Z,88.37
2023-05-19T22:57:11.748Z,89.26
2023-05-19T22:59:43.428Z,88.62
2023-05-19T23:02:10.062Z,89.05
2023-05-19T23:04:36.676Z,89.76
2023-05-19T23:07:03.339Z,90.05
2023-05-19T23:09:30.625Z,88.58
2023-05-19T23:12:02.015Z,90.34
2023-05-19T23:14:28.556Z,89.72
2023-05-19T23:16:55.110Z,90.70
2023-05-19T23:19:24.333Z,91.52
2023-05-19T23:21:53.244Z,92.67
2023-05-19T23:24:22.196Z,90.56
2023-05-19T23:26:50.789Z,92.80
2023-05-19T23:29:19.597Z,91.97
2023-05-19T23:31:46.223Z,93.64
2023-05-19T23:34:12.944Z,93.76
2023-05-19T23:36:41.928Z,92.21
2023-05-19T23:39:11.352Z,92.69
2023-05-19T23:41:40.130Z,92.78
2023-05-19T23:44:10.539Z,92.89
2023-05-19T23:46:37.146Z,92.56
2023-05-19T23:49:03.878Z,92.30
2023-05-19T23:51:32.775Z,93.38
2023-05-19T23:53:59.378Z,93.03
2023-05-19T23:56:28.483Z,92.31
2023-05-19T23:58:55.141Z,92.33
